Time;durP1;ratioP1;P1;durP2;ratioP2;P2;SDS_P1;SDS_P2;PMS_P1;PMS_P2;Temp;Humidity;BMP_temperature;BMP_pressure;BME280_temperature;BME280_humidity;BME280_pressure;Samples;Min_cycle;Max_cycle;Signal;HPM_P1;HPM_P2
2023/01/29 00:01:02;;;;;;;;;;;;;;;-144.99;100.00;52590.78;5069991;28;20037;-75
2023/01/29 00:03:30;;;;;;;;;;;;;;;-144.99;100.00;52517.41;5059346;28;20029;-75
2023/01/29 00:05:57;;;;;;;;;;;;;;;-144.99;100.00;52558.16;5067538;28;20522;-76
2023/01/29 00:08:23;;;;;;;;;;;;;;;-144.99;100.00;52594.84;5065248;28;20069;-75
2023/01/29 00:10:50;;;;;;;;;;;;;;;-144.99;100.00;52537.78;5067371;28;19972;-77
2023/01/29 00:13:16;;;;;;;;;;;;;;;-144.99;100.00;52527.59;5066400;28;19945;-75
2023/01/29 00:15:43;;;;;;;;;;;;;;;-144.99;100.00;52550.00;5068053;28;20037;-75
2023/01/29 00:18:09;;;;;;;;;;;;;;;-144.99;100.00;52558.16;5068401;28;20392;-76
2023/01/29 00:20:37;;;;;;;;;;;;;;;-144.99;100.00;52529.63;5064875;28;19941;-76
2023/01/29 00:23:03;;;;;;;;;;;;;;;-144.99;100.00;52541.84;5067717;28;19947;-76
2023/01/29 00:25:31;;;;;;;;;;;;;;;-144.99;100.00;52537.78;5067122;28;19994;-78
2023/01/29 00:27:57;;;;;;;;;;;;;;;-144.99;100.00;52594.84;5084747;28;19992;-77
2023/01/29 00:30:24;;;;;;;;;;;;;;;-144.99;100.00;52566.31;5077204;28;19945;-76
2023/01/29 00:32:51;;;;;;;;;;;;;;;-144.99;100.00;52588.75;5066905;28;20050;-75
2023/01/29 00:35:18;;;;;;;;;;;;;;;-144.99;100.00;52554.09;5071789;28;19931;-82
2023/01/29 00:37:46;;;;;;;;;;;;;;;-144.99;100.00;52562.25;5087354;28;19959;-79
2023/01/29 00:40:13;;;;;;;;;;;;;;;-144.99;100.00;52586.69;5089013;28;19925;-79
2023/01/29 00:45:23;;;;;;;;;;;;;;;-144.99;100.00;52541.84;5079375;28;19964;-78
2023/01/29 00:47:49;;;;;;;;;;;;;;;-144.99;100.00;52574.47;5082203;28;19950;-81
2023/01/29 00:50:16;;;;;;;;;;;;;;;-144.99;100.00;52570.38;5080807;28;19932;-78
2023/01/29 00:52:42;;;;;;;;;;;;;;;-144.99;100.00;52590.78;5077173;28;19938;-78
2023/01/29 00:55:11;;;;;;;;;;;;;;;-144.99;100.00;52543.91;5085342;28;19937;-76
2023/01/29 00:57:37;;;;;;;;;;;;;;;-144.99;100.00;52554.09;5111499;22;20113;-73
2023/01/29 01:00:05;;;;;;;;;;;;;;;-144.99;100.00;52582.63;5094791;28;20018;-78
2023/01/29 01:05:17;;;;;;;;;;;;;;;-144.99;100.00;52554.09;5101986;28;19957;-73
2023/01/29 01:07:44;;;;;;;;;;;;;;;-144.99;100.00;52586.69;5098005;28;19923;-78
2023/01/29 01:10:23;;;;;;;;;;;;;;;-144.99;100.00;52554.09;5095090;28;19950;-74
2023/01/29 01:12:51;;;;;;;;;;;;;;;-144.99;100.00;52537.78;5093651;28;20108;-76
2023/01/29 01:15:18;;;;;;;;;;;;;;;-144.99;100.00;52574.47;5094009;28;20688;-75
2023/01/29 01:17:44;;;;;;;;;;;;;;;-144.99;100.00;52554.09;5093100;28;19996;-73
2023/01/29 01:20:11;;;;;;;;;;;;;;;-144.99;100.00;52521.47;5094297;28;20368;-73
2023/01/29 01:22:38;;;;;;;;;;;;;;;-144.99;100.00;52541.84;5101516;28;20038;-73
2023/01/29 01:25:05;;;;;;;;;;;;;;;-144.99;100.00;52529.63;5092774;28;19944;-75
2023/01/29 01:27:33;;;;;;;;;;;;;;;-144.99;100.00;52527.59;5108328;28;19956;-75
2023/01/29 01:30:00;;;;;;;;;;;;;;;-144.99;100.00;52541.84;5106926;27;19941;-76
2023/01/29 01:32:26;;;;;;;;;;;;;;;-144.99;100.00;52586.69;5089729;28;20494;-72
2023/01/29 01:34:53;;;;;;;;;;;;;;;-144.99;100.00;52554.09;5088494;28;20039;-74
2023/01/29 01:37:19;;;;;;;;;;;;;;;-144.99;100.00;52554.09;5089351;28;19935;-73
2023/01/29 01:39:47;;;;;;;;;;;;;;;-144.99;100.00;52574.47;5088076;28;19973;-73
2023/01/29 01:42:14;;;;;;;;;;;;;;;-144.99;100.00;52550.00;5096265;28;19983;-75
2023/01/29 01:44:57;;;;;;;;;;;;;;;-144.99;100.00;52550.00;5093422;28;19950;-75
2023/01/29 01:47:26;;;;;;;;;;;;;;;-144.99;100.00;52574.47;5085270;28;20007;-74
2023/01/29 01:49:53;;;;;;;;;;;;;;;-144.99;100.00;52582.63;5087031;28;19973;-72
2023/01/29 01:52:20;;;;;;;;;;;;;;;-144.99;100.00;52547.97;5093835;28;19943;-74
2023/01/29 01:54:47;;;;;;;;;;;;;;;-144.99;100.00;52605.03;5095010;28;19985;-75
2023/01/29 01:57:15;;;;;;;;;;;;;;;-144.99;100.00;52586.69;5086890;28;20026;-74
2023/01/29 01:59:43;;;;;;;;;;;;;;;-144.99;100.00;52562.25;5088311;28;19973;-74
2023/01/29 02:10:27;;;;;;;;;;;;;;;-144.99;100.00;52562.25;5087687;28;20037;-76
2023/01/29 02:12:54;;;;;;;;;;;;;;;-144.99;100.00;52525.56;5083390;28;19990;-75
2023/01/29 02:15:20;;;;;;;;;;;;;;;-144.99;100.00;52525.56;5088255;28;20047;-74
2023/01/29 02:17:48;;;;;;;;;;;;;;;-144.99;100.00;52554.09;5090344;28;20057;-74
2023/01/29 02:20:18;;;;;;;;;;;;;;;-144.99;100.00;52576.50;5092314;28;20378;-73
2023/01/29 02:23:08;;;;;;;;;;;;;;;-144.99;100.00;52582.63;5106150;28;20506;-74
2023/01/29 02:25:47;;;;;;;;;;;;;;;-144.99;100.00;52554.09;5088478;28;19987;-73
2023/01/29 02:28:23;;;;;;;;;;;;;;;-144.99;100.00;52545.94;5091313;28;19975;-73
2023/01/29 02:30:53;;;;;;;;;;;;;;;-144.99;100.00;52527.59;5087514;28;20065;-73
2023/01/29 02:33:26;;;;;;;;;;;;;;;-144.99;100.00;52566.31;5087810;28;19936;-72
2023/01/29 02:35:55;;;;;;;;;;;;;;;-144.99;100.00;52541.84;5100146;28;19934;-75
2023/01/29 02:38:26;;;;;;;;;;;;;;;-144.99;100.00;52539.81;5119854;28;19932;-73
2023/01/29 02:40:54;;;;;;;;;;;;;;;-144.99;100.00;52541.84;5098514;28;19952;-72
2023/01/29 02:43:28;;;;;;;;;;;;;;;-144.99;100.00;52517.41;5091930;28;20155;-75
2023/01/29 02:46:00;;;;;;;;;;;;;;;-144.99;100.00;52545.94;5090463;28;20403;-76
2023/01/29 02:48:30;;;;;;;;;;;;;;;-144.99;100.00;52545.94;5090806;28;19971;-74
2023/01/29 02:50:59;;;;;;;;;;;;;;;-144.99;100.00;52576.50;5090395;28;19928;-73
2023/01/29 02:53:27;;;;;;;;;;;;;;;-144.99;100.00;52592.81;5089066;28;20015;-73
2023/01/29 02:55:56;;;;;;;;;;;;;;;-144.99;100.00;52568.34;5087167;28;20510;-75
2023/01/29 02:58:29;;;;;;;;;;;;;;;-144.99;100.00;52578.53;5095152;28;20039;-76
2023/01/29 03:01:00;;;;;;;;;;;;;;;-144.99;100.00;52564.28;5089916;28;20010;-75
2023/01/29 03:03:29;;;;;;;;;;;;;;;-144.99;100.00;52545.94;5089831;28;19983;-74
2023/01/29 03:05:58;;;;;;;;;;;;;;;-144.99;100.00;52513.31;5092334;28;20148;-77
2023/01/29 03:08:35;;;;;;;;;;;;;;;-144.99;100.00;52550.00;5088965;28;19967;-73
2023/01/29 03:11:04;;;;;;;;;;;;;;;-144.99;100.00;52550.00;5090342;28;21681;-74
2023/01/29 03:13:35;;;;;;;;;;;;;;;-144.99;100.00;52578.53;5097503;28;19977;-73
2023/01/29 03:16:05;;;;;;;;;;;;;;;-144.99;100.00;52521.47;5105199;28;20397;-73
2023/01/29 03:18:34;;;;;;;;;;;;;;;-144.99;100.00;52564.28;5095258;28;20049;-75
2023/01/29 03:21:48;;;;;;;;;;;;;;;-144.99;100.00;52543.91;5085911;28;19949;-72
2023/01/29 03:32:06;;;;;;;;;;;;;;;-144.99;100.00;52554.09;5087685;28;19979;-74
2023/01/29 03:34:37;;;;;;;;;;;;;;;-144.99;100.00;52558.16;5091015;28;20380;-72
2023/01/29 03:37:08;;;;;;;;;;;;;;;-144.99;100.00;52570.38;5089331;28;20018;-73
2023/01/29 03:39:35;;;;;;;;;;;;;;;-144.99;100.00;52533.69;5088415;28;20595;-74
2023/01/29 03:42:04;;;;;;;;;;;;;;;-144.99;100.00;52521.47;5089761;28;19923;-72
2023/01/29 03:44:39;;;;;;;;;;;;;;;-144.99;100.00;52562.25;5086227;28;19942;-74
2023/01/29 03:47:13;;;;;;;;;;;;;;;-144.99;100.00;52550.00;5108685;28;19934;-73
2023/01/29 03:49:47;;;;;;;;;;;;;;;-144.99;100.00;52501.09;5093206;28;19954;-74
2023/01/29 03:52:18;;;;;;;;;;;;;;;-144.99;100.00;52554.09;5091515;28;19937;-73
2023/01/29 03:54:53;;;;;;;;;;;;;;;-144.99;100.00;52550.00;5088343;28;20809;-74
2023/01/29 03:57:25;;;;;;;;;;;;;;;-144.99;100.00;52541.84;5085866;28;19999;-73
2023/01/29 03:59:56;;;;;;;;;;;;;;;-144.99;100.00;52525.56;5085411;28;20018;-73
2023/01/29 04:02:26;;;;;;;;;;;;;;;-144.99;100.00;52525.56;5095684;28;19958;-71
2023/01/29 04:04:53;;;;;;;;;;;;;;;-144.99;100.00;52541.84;5091314;28;20444;-75
2023/01/29 04:07:23;;;;;;;;;;;;;;;-144.99;100.00;52550.00;5091405;28;20028;-75
2023/01/29 04:09:51;;;;;;;;;;;;;;;-144.99;100.00;52490.91;5091130;28;19958;-78
2023/01/29 04:12:20;;;;;;;;;;;;;;;-144.99;100.00;52554.09;5086209;28;20441;-73
2023/01/29 04:14:47;;;;;;;;;;;;;;;-144.99;100.00;52541.84;5091393;28;20396;-74
2023/01/29 04:17:18;;;;;;;;;;;;;;;-144.99;100.00;52527.59;5088149;28;20486;-75
2023/01/29 04:19:44;;;;;;;;;;;;;;;-144.99;100.00;52521.47;5091081;28;19964;-73
2023/01/29 04:22:14;;;;;;;;;;;;;;;-144.99;100.00;52550.00;5087753;28;20015;-75
2023/01/29 04:24:41;;;;;;;;;;;;;;;-144.99;100.00;52541.84;5087226;28;20030;-73
2023/01/29 04:27:14;;;;;;;;;;;;;;;-144.99;100.00;52576.50;5084886;28;19935;-76
2023/01/29 04:29:48;;;;;;;;;;;;;;;-144.99;100.00;52554.09;5089237;28;20039;-73
2023/01/29 04:32:22;;;;;;;;;;;;;;;-144.99;100.00;52556.13;5088942;28;20011;-72
2023/01/29 04:34:52;;;;;;;;;;;;;;;-144.99;100.00;52566.31;5089565;28;20047;-72
2023/01/29 04:37:23;;;;;;;;;;;;;;;-144.99;100.00;52533.69;5091617;28;19962;-73
2023/01/29 04:39:55;;;;;;;;;;;;;;;-144.99;100.00;52566.31;5090235;28;19989;-74
2023/01/29 04:42:27;;;;;;;;;;;;;;;-144.99;100.00;52554.09;5093179;28;20050;-75
2023/01/29 04:44:57;;;;;;;;;;;;;;;-144.99;100.00;52570.38;5088539;28;20033;-77
2023/01/29 04:47:32;;;;;;;;;;;;;;;-144.99;100.00;52541.84;5094154;28;20402;-74
2023/01/29 04:50:02;;;;;;;;;;;;;;;-144.99;100.00;52578.53;5090269;28;19996;-77
2023/01/29 04:52:34;;;;;;;;;;;;;;;-144.99;100.00;52574.47;5089354;28;19948;-74
2023/01/29 04:55:04;;;;;;;;;;;;;;;-144.99;100.00;52545.94;5115593;28;19931;-81
2023/01/29 04:57:34;;;;;;;;;;;;;;;-144.99;100.00;52574.47;5099531;28;20340;-73
2023/01/29 05:00:03;;;;;;;;;;;;;;;-144.99;100.00;52590.78;5091494;28;19973;-77
2023/01/29 05:02:33;;;;;;;;;;;;;;;-144.99;100.00;52545.94;5089850;28;19955;-73
2023/01/29 05:05:00;;;;;;;;;;;;;;;-144.99;100.00;52537.78;5100228;28;20054;-77
2023/01/29 05:07:28;;;;;;;;;;;;;;;-144.99;100.00;52529.63;5092532;28;20082;-74
2023/01/29 05:09:56;;;;;;;;;;;;;;;-144.99;100.00;52521.47;5093919;28;19961;-76
2023/01/29 05:12:25;;;;;;;;;;;;;;;-144.99;100.00;52582.63;5091695;28;20034;-74
2023/01/29 05:14:53;;;;;;;;;;;;;;;-144.99;100.00;52550.00;5091679;28;19974;-75
2023/01/29 05:17:20;;;;;;;;;;;;;;;-144.99;100.00;52511.28;5096276;28;19967;-75
2023/01/29 05:19:48;;;;;;;;;;;;;;;-144.99;100.00;52550.00;5099830;28;19973;-74
2023/01/29 05:22:16;;;;;;;;;;;;;;;-144.99;100.00;52552.03;5085663;27;20050;-79
2023/01/29 05:24:43;;;;;;;;;;;;;;;-144.99;100.00;52509.25;5083785;28;21585;-72
2023/01/29 05:30:00;;;;;;;;;;;;;;;-144.99;100.00;52545.94;5115308;28;19934;-73
2023/01/29 05:32:26;;;;;;;;;;;;;;;-144.99;100.00;52562.25;5089493;28;20037;-76
2023/01/29 05:34:54;;;;;;;;;;;;;;;-144.99;100.00;52550.00;5088736;28;20041;-74
2023/01/29 05:37:21;;;;;;;;;;;;;;;-144.99;100.00;52550.00;5101595;28;19992;-74
2023/01/29 05:39:47;;;;;;;;;;;;;;;-144.99;100.00;52509.25;5096482;28;21246;-74
2023/01/29 05:42:14;;;;;;;;;;;;;;;-144.99;100.00;52523.50;5091112;28;20363;-77
2023/01/29 05:44:40;;;;;;;;;;;;;;;-144.99;100.00;52497.00;5094765;28;20036;-73
2023/01/29 05:47:07;;;;;;;;;;;;;;;-144.99;100.00;52556.13;5092433;28;20027;-72
2023/01/29 05:49:33;;;;;;;;;;;;;;;-144.99;100.00;52594.84;5089814;28;20066;-72
2023/01/29 05:52:01;;;;;;;;;;;;;;;-144.99;100.00;52521.47;5095049;28;20089;-72
2023/01/29 05:54:27;;;;;;;;;;;;;;;-144.99;100.00;52590.78;5091238;28;20035;-74
2023/01/29 05:56:54;;;;;;;;;;;;;;;-144.99;100.00;52531.66;5101171;28;20040;-73
2023/01/29 05:59:20;;;;;;;;;;;;;;;-144.99;100.00;52521.47;5105113;28;20060;-74
2023/01/29 06:01:47;;;;;;;;;;;;;;;-144.99;99.74;52556.13;5104171;28;19974;-79
2023/01/29 06:04:13;;;;;;;;;;;;;;;-144.99;99.98;52521.47;5115314;28;20024;-73
2023/01/29 06:06:40;;;;;;;;;;;;;;;-144.99;99.64;52554.09;5099304;28;20312;-74
2023/01/29 06:09:09;;;;;;;;;;;;;;;-144.99;99.60;52503.13;5099809;28;20523;-72
2023/01/29 06:11:36;;;;;;;;;;;;;;;-144.99;100.00;52533.69;5095699;28;19960;-72
2023/01/29 06:14:02;;;;;;;;;;;;;;;-144.99;99.69;52545.94;5094894;28;20027;-72
2023/01/29 06:16:28;;;;;;;;;;;;;;;-144.99;100.00;52554.09;5097058;28;19963;-75
2023/01/29 06:18:55;;;;;;;;;;;;;;;-144.99;100.00;52509.25;5094020;28;20024;-71
2023/01/29 06:21:21;;;;;;;;;;;;;;;-144.99;100.00;52541.84;5092474;28;20713;-79
2023/01/29 06:23:48;;;;;;;;;;;;;;;-144.99;100.00;52582.63;5093630;28;20018;-72
2023/01/29 06:26:16;;;;;;;;;;;;;;;-144.99;100.00;52550.00;5091647;28;20025;-73
2023/01/29 06:28:44;;;;;;;;;;;;;;;-144.99;100.00;52554.09;5098371;28;20024;-72
2023/01/29 06:31:11;;;;;;;;;;;;;;;-144.99;100.00;52574.47;5093837;28;20404;-72
2023/01/29 06:33:37;;;;;;;;;;;;;;;-144.99;100.00;52529.63;5105299;28;20106;-74
2023/01/29 06:36:05;;;;;;;;;;;;;;;-144.99;99.50;52558.16;5107562;28;20014;-73
2023/01/29 06:38:31;;;;;;;;;;;;;;;-144.99;98.84;52558.16;5092182;28;19960;-73
2023/01/29 06:40:58;;;;;;;;;;;;;;;-144.99;100.00;52545.94;5096373;28;19952;-76
2023/01/29 06:43:26;;;;;;;;;;;;;;;-144.99;100.00;52562.25;5095715;28;20018;-72
2023/01/29 06:45:53;;;;;;;;;;;;;;;-144.99;100.00;52554.09;5092777;28;19996;-73
2023/01/29 06:48:20;;;;;;;;;;;;;;;-144.99;100.00;52570.38;5097819;28;20355;-76
2023/01/29 06:50:46;;;;;;;;;;;;;;;-144.99;100.00;52529.63;5095625;28;20012;-73
2023/01/29 06:53:13;;;;;;;;;;;;;;;-144.99;100.00;52537.78;5097949;28;19932;-73
2023/01/29 06:55:39;;;;;;;;;;;;;;;-144.99;100.00;52537.78;5094439;28;19967;-76
2023/01/29 06:58:06;;;;;;;;;;;;;;;-144.99;100.00;52525.56;5101184;28;20022;-73
2023/01/29 07:00:34;;;;;;;;;;;;;;;-144.99;100.00;52582.63;5102539;28;20816;-73
2023/01/29 07:03:01;;;;;;;;;;;;;;;-144.99;98.02;52533.69;5090707;28;21399;-75
2023/01/29 07:05:27;;;;;;;;;;;;;;;-144.99;99.75;52566.31;5092016;27;19967;-71
2023/01/29 07:07:54;;;;;;;;;;;;;;;-144.99;100.00;52570.38;5093104;28;20061;-72
2023/01/29 07:10:20;;;;;;;;;;;;;;;-144.99;100.00;52545.94;5106152;27;19980;-75
2023/01/29 07:12:47;;;;;;;;;;;;;;;-144.99;99.68;52539.81;5112382;28;19939;-72
2023/01/29 07:15:13;;;;;;;;;;;;;;;-144.99;98.92;52570.38;5093703;27;19982;-73
2023/01/29 07:17:41;;;;;;;;;;;;;;;-144.99;99.77;52521.47;5090526;27;20011;-74
2023/01/29 07:20:09;;;;;;;;;;;;;;;-144.99;98.92;52525.56;5102958;22;19995;-73
2023/01/29 07:22:35;;;;;;;;;;;;;;;-144.99;98.09;52558.16;5054420;28;20012;-77
2023/01/29 07:25:01;;;;;;;;;;;;;;;-144.99;96.30;52545.94;5068178;28;19925;-76
2023/01/29 07:27:28;;;;;;;;;;;;;;;-144.99;95.68;52529.63;5059624;28;19925;-75
2023/01/29 07:29:54;;;;;;;;;;;;;;;-144.99;96.23;52521.47;5055643;28;20059;-76
2023/01/29 07:32:21;;;;;;;;;;;;;;;-144.99;97.63;52521.47;5034936;28;20038;-78
2023/01/29 07:34:49;;;;;;;;;;;;;;;-144.99;98.56;52507.19;5052515;28;20028;-76
2023/01/29 07:37:15;;;;;;;;;;;;;;;-144.99;98.76;52550.00;5033792;28;19985;-76
2023/01/29 07:39:42;;;;;;;;;;;;;;;-144.99;98.41;52570.38;5031242;28;20274;-75
2023/01/29 07:42:08;;;;;;;;;;;;;;;-144.99;98.86;52543.91;5036376;28;19953;-77
2023/01/29 07:44:35;;;;;;;;;;;;;;;-144.99;98.18;52523.50;5033522;28;19989;-76
2023/01/29 07:47:01;;;;;;;;;;;;;;;-144.99;98.06;52547.97;5044592;28;20435;-74
2023/01/29 07:49:28;;;;;;;;;;;;;;;-144.99;98.65;52509.25;5034112;28;20116;-76
2023/01/29 07:51:56;;;;;;;;;;;;;;;-144.99;98.40;52554.09;5038931;28;20028;-76
2023/01/29 07:54:22;;;;;;;;;;;;;;;-144.99;97.41;52533.69;5036829;28;20291;-75
2023/01/29 07:56:48;;;;;;;;;;;;;;;-144.99;97.48;52554.09;5031806;28;19980;-74
2023/01/29 07:59:17;;;;;;;;;;;;;;;-144.99;97.51;52550.00;5028831;28;20040;-74
2023/01/29 08:01:43;;;;;;;;;;;;;;;-144.99;97.84;52562.25;5035597;28;19952;-75
2023/01/29 08:04:10;;;;;;;;;;;;;;;-144.99;99.06;52513.31;5032856;28;20040;-75
2023/01/29 08:06:36;;;;;;;;;;;;;;;-144.99;98.11;52574.47;5033098;28;20027;-75
2023/01/29 08:09:04;;;;;;;;;;;;;;;-144.99;98.10;52547.97;5035752;28;20032;-75
2023/01/29 08:11:31;;;;;;;;;;;;;;;-144.99;96.53;52533.69;5040131;28;19951;-77
2023/01/29 08:13:57;;;;;;;;;;;;;;;-144.99;96.41;52558.16;5050193;28;20413;-74
2023/01/29 08:16:24;;;;;;;;;;;;;;;-144.99;95.82;52545.94;5048533;28;19925;-76
2023/01/29 08:18:50;;;;;;;;;;;;;;;-144.99;96.08;52582.63;5043672;28;19942;-73
2023/01/29 08:21:17;;;;;;;;;;;;;;;-144.99;95.23;52529.63;5027961;28;20017;-75
2023/01/29 08:23:43;;;;;;;;;;;;;;;-144.99;95.32;52529.63;5025537;28;20633;-74
2023/01/29 08:26:11;;;;;;;;;;;;;;;-144.99;96.07;52568.34;5034475;28;20030;-74
2023/01/29 08:28:38;;;;;;;;;;;;;;;-144.99;96.05;52552.03;5033508;28;20518;-75
2023/01/29 08:31:05;;;;;;;;;;;;;;;-144.99;96.28;52533.69;5029196;28;19966;-73
2023/01/29 08:33:32;;;;;;;;;;;;;;;-144.99;96.12;52515.34;5027952;28;21587;-73
2023/01/29 08:35:58;;;;;;;;;;;;;;;-144.99;95.33;52572.44;5033936;28;20028;-73
2023/01/29 08:38:25;;;;;;;;;;;;;;;-144.99;96.64;52513.31;5038930;28;20025;-74
2023/01/29 08:40:52;;;;;;;;;;;;;;;-144.99;96.85;52539.81;5039556;28;19984;-75
2023/01/29 08:43:19;;;;;;;;;;;;;;;-144.99;96.80;52521.47;5030619;28;20006;-75
2023/01/29 08:45:46;;;;;;;;;;;;;;;-144.99;96.12;52547.97;5025886;28;20368;-73
2023/01/29 08:48:12;;;;;;;;;;;;;;;-144.99;96.83;52525.56;5039198;28;19967;-74
2023/01/29 08:50:39;;;;;;;;;;;;;;;-144.99;96.72;52521.47;5037676;28;19948;-76
2023/01/29 08:53:07;;;;;;;;;;;;;;;-144.99;96.93;52505.16;5026967;28;20099;-75
2023/01/29 08:55:35;;;;;;;;;;;;;;;-144.99;97.17;52543.91;5029182;28;19950;-76
2023/01/29 08:58:03;;;;;;;;;;;;;;;-144.99;98.07;52541.84;5025877;28;20473;-73
2023/01/29 09:00:30;;;;;;;;;;;;;;;-144.99;97.84;52537.78;5026559;28;20042;-75
2023/01/29 09:02:58;;;;;;;;;;;;;;;-144.99;99.52;52545.94;5025940;28;20042;-73
2023/01/29 09:05:25;;;;;;;;;;;;;;;-144.99;100.00;52509.25;5044062;28;19936;-74
2023/01/29 09:07:51;;;;;;;;;;;;;;;-144.99;100.00;52541.84;5040882;28;20005;-73
2023/01/29 09:10:18;;;;;;;;;;;;;;;-144.99;100.00;52519.44;5034249;28;19997;-72
2023/01/29 09:12:44;;;;;;;;;;;;;;;-144.99;100.00;52556.13;5034298;28;19974;-74
2023/01/29 09:15:11;;;;;;;;;;;;;;;-144.99;100.00;52570.38;5040791;28;19979;-74
2023/01/29 09:17:39;;;;;;;;;;;;;;;-144.99;100.00;52539.81;5038989;28;20016;-72
2023/01/29 09:20:07;;;;;;;;;;;;;;;-144.99;100.00;52505.16;5031147;28;19940;-73
2023/01/29 09:22:33;;;;;;;;;;;;;;;-144.99;100.00;52545.94;5033126;28;19999;-74
2023/01/29 09:25:00;;;;;;;;;;;;;;;-144.99;100.00;52513.31;5030279;28;19964;-74
2023/01/29 09:27:26;;;;;;;;;;;;;;;-144.99;100.00;52578.53;5031204;28;19933;-73
2023/01/29 09:29:53;;;;;;;;;;;;;;;-144.99;100.00;52558.16;5027020;28;20008;-74
2023/01/29 09:32:19;;;;;;;;;;;;;;;-144.99;100.00;52517.41;5038569;28;20000;-74
2023/01/29 09:34:47;;;;;;;;;;;;;;;-144.99;100.00;52513.31;5031606;28;20033;-71
2023/01/29 09:37:16;;;;;;;;;;;;;;;-144.99;100.00;52513.31;5026606;28;20387;-72
2023/01/29 09:39:42;;;;;;;;;;;;;;;-144.99;100.00;52529.63;5029471;28;20314;-73
2023/01/29 09:42:12;;;;;;;;;;;;;;;-144.99;100.00;52533.69;5026000;28;19992;-74
2023/01/29 09:44:47;;;;;;;;;;;;;;;-144.99;100.00;52554.09;5026659;28;19959;-77
2023/01/29 09:47:14;;;;;;;;;;;;;;;-144.99;100.00;52525.56;5028431;28;20029;-74
2023/01/29 09:49:43;;;;;;;;;;;;;;;-144.99;100.00;52537.78;5031339;28;19968;-75
2023/01/29 09:52:17;;;;;;;;;;;;;;;-144.99;100.00;52556.13;5029465;28;20015;-74
2023/01/29 09:54:48;;;;;;;;;;;;;;;-144.99;100.00;52545.94;5026354;28;20024;-74
2023/01/29 09:57:19;;;;;;;;;;;;;;;-144.99;100.00;52550.00;5030916;28;20056;-76
2023/01/29 09:59:45;;;;;;;;;;;;;;;-144.99;100.00;52543.91;5033020;28;19996;-74
2023/01/29 10:02:28;;;;;;;;;;;;;;;-144.99;100.00;52578.53;5036094;28;20030;-73
2023/01/29 10:05:11;;;;;;;;;;;;;;;-144.99;100.00;52533.69;5033097;28;19936;-73
2023/01/29 10:07:55;;;;;;;;;;;;;;;-144.99;100.00;52545.94;5032102;28;20034;-75
2023/01/29 10:10:26;;;;;;;;;;;;;;;-144.99;100.00;52552.03;5034663;28;19951;-73
2023/01/29 10:12:59;;;;;;;;;;;;;;;-144.99;100.00;52566.31;5029279;28;19971;-74
2023/01/29 10:15:33;;;;;;;;;;;;;;;-144.99;100.00;52558.16;5028610;28;20435;-73
2023/01/29 10:18:05;;;;;;;;;;;;;;;-144.99;100.00;52505.16;5043568;28;20530;-76
2023/01/29 10:20:39;;;;;;;;;;;;;;;-144.99;100.00;52566.31;5040785;28;20323;-76
2023/01/29 10:23:15;;;;;;;;;;;;;;;-144.99;100.00;52550.00;5036136;28;19936;-75
2023/01/29 10:25:42;;;;;;;;;;;;;;;-144.99;100.00;52507.19;5058092;28;19972;-75
2023/01/29 10:28:15;;;;;;;;;;;;;;;-144.99;100.00;52525.56;5044334;28;20450;-75
2023/01/29 10:30:46;;;;;;;;;;;;;;;-144.99;100.00;52525.56;5048537;28;19969;-75
2023/01/29 10:33:17;;;;;;;;;;;;;;;-144.99;100.00;52529.63;5031457;28;20439;-75
2023/01/29 10:35:46;;;;;;;;;;;;;;;-144.99;100.00;52513.31;5042823;28;20004;-75
2023/01/29 10:38:21;;;;;;;;;;;;;;;-144.99;100.00;52539.81;5055975;28;19990;-75
2023/01/29 10:40:52;;;;;;;;;;;;;;;-144.99;100.00;52521.47;5034242;28;19925;-75
2023/01/29 10:43:23;;;;;;;;;;;;;;;-144.99;100.00;52556.13;5042391;28;19947;-76
2023/01/29 10:45:56;;;;;;;;;;;;;;;-144.99;100.00;52562.25;5039682;28;20470;-76
2023/01/29 10:48:36;;;;;;;;;;;;;;;-144.99;100.00;52517.41;5037282;28;19976;-75
2023/01/29 10:51:08;;;;;;;;;;;;;;;-144.99;100.00;52521.47;5049477;28;19962;-74
2023/01/29 10:53:41;;;;;;;;;;;;;;;-144.99;100.00;52560.19;5053098;28;20470;-75
2023/01/29 10:56:15;;;;;;;;;;;;;;;-144.99;100.00;52529.63;5038900;28;20405;-78
2023/01/29 10:58:44;;;;;;;;;;;;;;;-144.99;100.00;52503.13;5037320;28;19955;-75
2023/01/29 11:01:11;;;;;;;;;;;;;;;-144.99;100.00;52541.84;5056622;28;19974;-78
2023/01/29 11:03:37;;;;;;;;;;;;;;;-144.99;100.00;52521.47;5051161;28;19955;-75
2023/01/29 11:06:10;;;;;;;;;;;;;;;-144.99;100.00;52509.25;5061502;28;19952;-76
2023/01/29 11:08:42;;;;;;;;;;;;;;;-144.99;100.00;52570.38;5068706;28;19909;-79
2023/01/29 11:11:12;;;;;;;;;;;;;;;-144.99;100.00;52545.94;5073595;28;19953;-76
2023/01/29 11:13:41;;;;;;;;;;;;;;;-144.99;100.00;52517.41;5060144;28;19937;-77
2023/01/29 11:16:09;;;;;;;;;;;;;;;-144.99;100.00;52517.41;5057524;28;19925;-75
2023/01/29 11:18:52;;;;;;;;;;;;;;;-144.99;100.00;52517.41;5040374;28;20031;-75
2023/01/29 11:21:18;;;;;;;;;;;;;;;-144.99;100.00;52503.13;5037235;28;19998;-74
2023/01/29 11:23:46;;;;;;;;;;;;;;;-144.99;100.00;52529.63;5051676;28;19982;-77
2023/01/29 11:26:13;;;;;;;;;;;;;;;-144.99;100.00;52521.47;5037008;28;19996;-75
2023/01/29 11:28:40;;;;;;;;;;;;;;;-144.99;100.00;52539.81;5038101;28;19959;-76
2023/01/29 11:31:18;;;;;;;;;;;;;;;-144.99;100.00;52537.78;5050143;28;20000;-76
2023/01/29 11:33:45;;;;;;;;;;;;;;;-144.99;100.00;52541.84;5059224;28;19971;-76
2023/01/29 11:36:31;;;;;;;;;;;;;;;-144.99;100.00;52566.31;5047150;28;20158;-76
2023/01/29 11:39:20;;;;;;;;;;;;;;;-144.99;100.00;52505.16;5055003;28;19947;-76
2023/01/29 11:41:52;;;;;;;;;;;;;;;-144.99;100.00;52529.63;5055951;28;19966;-75
2023/01/29 11:44:26;;;;;;;;;;;;;;;-144.99;100.00;52574.47;5073269;28;19938;-74
2023/01/29 11:46:53;;;;;;;;;;;;;;;-144.99;100.00;52570.38;5067052;28;19935;-76
2023/01/29 11:49:23;;;;;;;;;;;;;;;-144.99;99.97;52541.84;5051450;28;19949;-76
2023/01/29 11:51:52;;;;;;;;;;;;;;;-144.99;100.00;52576.50;5047234;28;20004;-76
2023/01/29 11:54:21;;;;;;;;;;;;;;;-144.99;100.00;52525.56;5055671;28;19939;-76
2023/01/29 11:56:50;;;;;;;;;;;;;;;-144.99;100.00;52537.78;5052671;28;20013;-76
2023/01/29 11:59:26;;;;;;;;;;;;;;;-144.99;99.92;52529.63;5048203;28;20401;-75
2023/01/29 12:01:52;;;;;;;;;;;;;;;-144.99;100.00;52517.41;5046407;28;19938;-76
2023/01/29 12:04:20;;;;;;;;;;;;;;;-144.99;100.00;52541.84;5049761;28;19990;-76
2023/01/29 12:06:50;;;;;;;;;;;;;;;-144.99;100.00;52529.63;5063767;28;19946;-76
2023/01/29 12:09:18;;;;;;;;;;;;;;;-144.99;100.00;52550.00;5052220;28;20026;-75
2023/01/29 12:11:46;;;;;;;;;;;;;;;-144.99;100.00;52507.19;5048756;28;20000;-75
2023/01/29 12:14:24;;;;;;;;;;;;;;;-144.99;100.00;52558.16;5053449;28;19933;-75
2023/01/29 12:16:52;;;;;;;;;;;;;;;-144.99;100.00;52521.47;5056948;28;19938;-74
2023/01/29 12:19:24;;;;;;;;;;;;;;;-144.99;100.00;52552.03;5041710;28;19998;-75
2023/01/29 12:21:53;;;;;;;;;;;;;;;-144.99;100.00;52527.59;5046638;28;19950;-76
2023/01/29 12:24:28;;;;;;;;;;;;;;;-144.99;100.00;52547.97;5051012;28;19944;-75
2023/01/29 12:26:59;;;;;;;;;;;;;;;-144.99;100.00;52525.56;5048647;28;19938;-75
2023/01/29 12:29:30;;;;;;;;;;;;;;;-144.99;100.00;52521.47;5047192;28;20365;-74
2023/01/29 12:32:01;;;;;;;;;;;;;;;-144.99;99.60;52513.31;5029874;28;20481;-75
2023/01/29 12:34:33;;;;;;;;;;;;;;;-144.99;98.24;52533.69;5046120;28;20582;-74
2023/01/29 12:37:03;;;;;;;;;;;;;;;-144.99;97.83;52537.78;5036992;28;19963;-75
2023/01/29 12:39:31;;;;;;;;;;;;;;;-144.99;98.32;52525.56;5036978;28;20480;-77
2023/01/29 12:42:03;;;;;;;;;;;;;;;-144.99;97.78;52529.63;5037325;28;19942;-74
2023/01/29 12:44:33;;;;;;;;;;;;;;;-144.99;97.46;52547.97;5037587;28;20576;-74
2023/01/29 12:47:01;;;;;;;;;;;;;;;-144.99;96.77;52521.47;5043027;28;19929;-75
2023/01/29 12:49:29;;;;;;;;;;;;;;;-144.99;96.07;52529.63;5049847;28;19996;-75
2023/01/29 12:51:59;;;;;;;;;;;;;;;-144.99;96.13;52497.00;5037754;28;20004;-76